sensor_id;sensor_type;location;lat;lon;timestamp;P1;durP1;ratioP1;P2;durP2;ratioP2
705;SDS011;21234;48.690;9.016;2022-12-07T00:01:05;9.30;;;6.20;;
705;SDS011;21234;48.690;9.016;2022-12-07T00:03:32;7.43;;;4.40;;
705;SDS011;21234;48.690;9.016;2022-12-07T00:06:00;7.23;;;4.97;;
705;SDS011;21234;48.690;9.016;2022-12-07T00:08:28;6.17;;;4.07;;
705;SDS011;21234;48.690;9.016;2022-12-07T00:10:55;7.13;;;5.10;;
705;SDS011;21234;48.690;9.016;2022-12-07T00:13:21;8.70;;;5.00;;
705;SDS011;21234;48.690;9.016;2022-12-07T00:15:48;4.90;;;3.80;;
705;SDS011;21234;48.690;9.016;2022-12-07T00:18:16;6.37;;;4.63;;
705;SDS011;21234;48.690;9.016;2022-12-07T00:20:43;8.97;;;5.63;;
705;SDS011;21234;48.690;9.016;2022-12-07T00:23:09;8.70;;;5.33;;
705;SDS011;21234;48.690;9.016;2022-12-07T00:25:36;9.43;;;6.17;;
705;SDS011;21234;48.690;9.016;2022-12-07T00:28:03;8.70;;;5.80;;
705;SDS011;21234;48.690;9.016;2022-12-07T00:30:30;8.07;;;5.80;;
705;SDS011;21234;48.690;9.016;2022-12-07T00:32:56;7.90;;;5.53;;
705;SDS011;21234;48.690;9.016;2022-12-07T00:35:24;12.07;;;6.37;;
705;SDS011;21234;48.690;9.016;2022-12-07T00:37:51;7.13;;;5.90;;
705;SDS011;21234;48.690;9.016;2022-12-07T00:40:18;10.93;;;6.30;;
705;SDS011;21234;48.690;9.016;2022-12-07T00:42:44;8.50;;;6.03;;
705;SDS011;21234;48.690;9.016;2022-12-07T00:45:11;8.60;;;6.67;;
705;SDS011;21234;48.690;9.016;2022-12-07T00:47:38;7.57;;;5.53;;
705;SDS011;21234;48.690;9.016;2022-12-07T00:50:05;8.87;;;6.87;;
705;SDS011;21234;48.690;9.016;2022-12-07T00:52:34;10.83;;;6.90;;
705;SDS011;21234;48.690;9.016;2022-12-07T00:55:00;10.30;;;5.70;;
705;SDS011;21234;48.690;9.016;2022-12-07T00:57:27;10.03;;;5.90;;
705;SDS011;21234;48.690;9.016;2022-12-07T00:59:54;10.80;;;7.30;;
705;SDS011;21234;48.690;9.016;2022-12-07T01:02:22;8.77;;;6.47;;
705;SDS011;21234;48.690;9.016;2022-12-07T01:04:49;8.50;;;7.13;;
705;SDS011;21234;48.690;9.016;2022-12-07T01:07:16;10.33;;;6.90;;
705;SDS011;21234;48.690;9.016;2022-12-07T01:09:44;9.10;;;5.90;;
705;SDS011;21234;48.690;9.016;2022-12-07T01:12:11;7.77;;;5.83;;
705;SDS011;21234;48.690;9.016;2022-12-07T01:14:37;9.43;;;6.60;;
705;SDS011;21234;48.690;9.016;2022-12-07T01:17:04;8.03;;;6.13;;
705;SDS011;21234;48.690;9.016;2022-12-07T01:19:31;6.93;;;5.97;;
705;SDS011;21234;48.690;9.016;2022-12-07T01:21:57;12.53;;;6.70;;
705;SDS011;21234;48.690;9.016;2022-12-07T01:24:24;9.07;;;7.60;;
705;SDS011;21234;48.690;9.016;2022-12-07T01:26:52;10.40;;;7.57;;
705;SDS011;21234;48.690;9.016;2022-12-07T01:29:19;8.03;;;5.90;;
705;SDS011;21234;48.690;9.016;2022-12-07T01:31:47;8.23;;;6.87;;
705;SDS011;21234;48.690;9.016;2022-12-07T01:34:15;6.90;;;6.03;;
705;SDS011;21234;48.690;9.016;2022-12-07T01:36:42;8.60;;;7.57;;
705;SDS011;21234;48.690;9.016;2022-12-07T01:39:08;9.07;;;6.47;;
705;SDS011;21234;48.690;9.016;2022-12-07T01:41:36;7.67;;;5.87;;
705;SDS011;21234;48.690;9.016;2022-12-07T01:44:11;9.47;;;6.90;;
705;SDS011;21234;48.690;9.016;2022-12-07T01:46:41;7.83;;;5.80;;
705;SDS011;21234;48.690;9.016;2022-12-07T01:49:10;9.20;;;6.07;;
705;SDS011;21234;48.690;9.016;2022-12-07T01:51:40;10.30;;;7.67;;
705;SDS011;21234;48.690;9.016;2022-12-07T01:54:09;13.90;;;7.10;;
705;SDS011;21234;48.690;9.016;2022-12-07T01:56:39;10.17;;;6.73;;
705;SDS011;21234;48.690;9.016;2022-12-07T01:59:10;9.30;;;6.67;;
705;SDS011;21234;48.690;9.016;2022-12-07T02:01:36;8.20;;;6.20;;
705;SDS011;21234;48.690;9.016;2022-12-07T02:04:03;9.20;;;5.90;;
705;SDS011;21234;48.690;9.016;2022-12-07T02:06:31;8.53;;;5.97;;
705;SDS011;21234;48.690;9.016;2022-12-07T02:08:59;7.80;;;5.60;;
705;SDS011;21234;48.690;9.016;2022-12-07T02:11:26;9.07;;;6.13;;
705;SDS011;21234;48.690;9.016;2022-12-07T02:13:53;8.93;;;5.80;;
705;SDS011;21234;48.690;9.016;2022-12-07T02:16:24;9.00;;;6.20;;
705;SDS011;21234;48.690;9.016;2022-12-07T02:18:59;11.40;;;6.67;;
705;SDS011;21234;48.690;9.016;2022-12-07T02:21:42;6.87;;;5.67;;
705;SDS011;21234;48.690;9.016;2022-12-07T02:24:19;8.50;;;5.70;;
705;SDS011;21234;48.690;9.016;2022-12-07T02:27:09;8.80;;;5.77;;
705;SDS011;21234;48.690;9.016;2022-12-07T02:29:52;8.20;;;5.80;;
705;SDS011;21234;48.690;9.016;2022-12-07T02:32:25;10.90;;;6.17;;
705;SDS011;21234;48.690;9.016;2022-12-07T02:34:58;9.50;;;6.30;;
705;SDS011;21234;48.690;9.016;2022-12-07T02:37:33;8.53;;;6.10;;
705;SDS011;21234;48.690;9.016;2022-12-07T02:40:07;6.83;;;5.40;;
705;SDS011;21234;48.690;9.016;2022-12-07T02:42:37;7.93;;;5.80;;
705;SDS011;21234;48.690;9.016;2022-12-07T02:45:10;10.67;;;6.70;;
705;SDS011;21234;48.690;9.016;2022-12-07T02:47:40;9.33;;;6.30;;
705;SDS011;21234;48.690;9.016;2022-12-07T02:50:09;5.10;;;4.57;;
705;SDS011;21234;48.690;9.016;2022-12-07T02:52:37;8.77;;;6.10;;
705;SDS011;21234;48.690;9.016;2022-12-07T02:55:03;8.07;;;5.80;;
705;SDS011;21234;48.690;9.016;2022-12-07T02:57:36;10.53;;;6.53;;
705;SDS011;21234;48.690;9.016;2022-12-07T03:00:13;8.13;;;5.23;;
705;SDS011;21234;48.690;9.016;2022-12-07T03:02:46;8.47;;;6.77;;
705;SDS011;21234;48.690;9.016;2022-12-07T03:05:21;5.67;;;4.90;;
705;SDS011;21234;48.690;9.016;2022-12-07T03:07:59;8.73;;;5.30;;
705;SDS011;21234;48.690;9.016;2022-12-07T03:10:32;6.53;;;5.40;;
705;SDS011;21234;48.690;9.016;2022-12-07T03:13:06;8.07;;;5.03;;
705;SDS011;21234;48.690;9.016;2022-12-07T03:15:41;7.40;;;6.70;;
705;SDS011;21234;48.690;9.016;2022-12-07T03:18:14;7.77;;;5.97;;
705;SDS011;21234;48.690;9.016;2022-12-07T03:20:46;7.80;;;5.87;;
705;SDS011;21234;48.690;9.016;2022-12-07T03:23:16;11.03;;;5.63;;
705;SDS011;21234;48.690;9.016;2022-12-07T03:25:46;10.87;;;6.20;;
705;SDS011;21234;48.690;9.016;2022-12-07T03:28:16;10.17;;;5.90;;
705;SDS011;21234;48.690;9.016;2022-12-07T03:30:47;7.70;;;5.63;;
705;SDS011;21234;48.690;9.016;2022-12-07T03:33:18;8.20;;;5.47;;
705;SDS011;21234;48.690;9.016;2022-12-07T03:35:50;11.80;;;7.10;;
705;SDS011;21234;48.690;9.016;2022-12-07T03:38:23;7.27;;;6.20;;
705;SDS011;21234;48.690;9.016;2022-12-07T03:40:54;9.47;;;5.70;;
705;SDS011;21234;48.690;9.016;2022-12-07T03:43:27;7.23;;;6.43;;
705;SDS011;21234;48.690;9.016;2022-12-07T03:45:59;7.00;;;5.73;;
705;SDS011;21234;48.690;9.016;2022-12-07T03:48:34;10.93;;;6.27;;
705;SDS011;21234;48.690;9.016;2022-12-07T03:51:06;9.50;;;7.10;;
705;SDS011;21234;48.690;9.016;2022-12-07T03:53:39;7.80;;;5.93;;
705;SDS011;21234;48.690;9.016;2022-12-07T03:56:09;8.83;;;7.20;;
705;SDS011;21234;48.690;9.016;2022-12-07T03:58:37;9.33;;;6.40;;
705;SDS011;21234;48.690;9.016;2022-12-07T04:01:07;8.27;;;5.63;;
705;SDS011;21234;48.690;9.016;2022-12-07T04:03:34;9.80;;;6.23;;
705;SDS011;21234;48.690;9.016;2022-12-07T04:06:01;10.73;;;6.83;;
705;SDS011;21234;48.690;9.016;2022-12-07T04:08:28;10.90;;;6.37;;
705;SDS011;21234;48.690;9.016;2022-12-07T04:10:54;9.70;;;6.60;;
705;SDS011;21234;48.690;9.016;2022-12-07T04:13:21;7.63;;;5.77;;
705;SDS011;21234;48.690;9.016;2022-12-07T04:15:48;9.03;;;6.40;;
705;SDS011;21234;48.690;9.016;2022-12-07T04:18:16;8.00;;;6.23;;
705;SDS011;21234;48.690;9.016;2022-12-07T04:20:42;6.93;;;4.90;;
705;SDS011;21234;48.690;9.016;2022-12-07T04:23:09;7.00;;;5.03;;
705;SDS011;21234;48.690;9.016;2022-12-07T04:25:36;7.40;;;5.60;;
705;SDS011;21234;48.690;9.016;2022-12-07T04:28:03;7.80;;;5.03;;
705;SDS011;21234;48.690;9.016;2022-12-07T04:30:29;7.30;;;5.00;;
705;SDS011;21234;48.690;9.016;2022-12-07T04:32:56;5.63;;;4.07;;
705;SDS011;21234;48.690;9.016;2022-12-07T04:35:24;7.10;;;5.70;;
705;SDS011;21234;48.690;9.016;2022-12-07T04:37:51;7.73;;;5.67;;
705;SDS011;21234;48.690;9.016;2022-12-07T04:40:17;7.00;;;5.30;;
705;SDS011;21234;48.690;9.016;2022-12-07T04:42:44;11.43;;;6.30;;
705;SDS011;21234;48.690;9.016;2022-12-07T04:45:11;8.70;;;6.10;;
705;SDS011;21234;48.690;9.016;2022-12-07T04:47:38;8.70;;;5.60;;
705;SDS011;21234;48.690;9.016;2022-12-07T04:50:05;6.70;;;5.43;;
705;SDS011;21234;48.690;9.016;2022-12-07T04:52:34;5.73;;;5.03;;
705;SDS011;21234;48.690;9.016;2022-12-07T04:55:00;5.47;;;4.50;;
705;SDS011;21234;48.690;9.016;2022-12-07T04:57:27;7.70;;;4.80;;
705;SDS011;21234;48.690;9.016;2022-12-07T04:59:54;7.50;;;5.07;;
705;SDS011;21234;48.690;9.016;2022-12-07T05:02:20;8.23;;;5.80;;
705;SDS011;21234;48.690;9.016;2022-12-07T05:04:47;6.67;;;4.53;;
705;SDS011;21234;48.690;9.016;2022-12-07T05:07:14;10.20;;;6.17;;
705;SDS011;21234;48.690;9.016;2022-12-07T05:09:42;8.53;;;5.20;;
705;SDS011;21234;48.690;9.016;2022-12-07T05:12:08;7.60;;;4.90;;
705;SDS011;21234;48.690;9.016;2022-12-07T05:14:35;6.93;;;4.80;;
705;SDS011;21234;48.690;9.016;2022-12-07T05:17:02;8.07;;;4.70;;
705;SDS011;21234;48.690;9.016;2022-12-07T05:19:29;12.93;;;9.40;;
705;SDS011;21234;48.690;9.016;2022-12-07T05:21:55;13.60;;;12.30;;
705;SDS011;21234;48.690;9.016;2022-12-07T05:24:22;10.00;;;7.17;;
705;SDS011;21234;48.690;9.016;2022-12-07T05:26:50;7.80;;;5.80;;
705;SDS011;21234;48.690;9.016;2022-12-07T05:29:17;6.33;;;4.40;;
705;SDS011;21234;48.690;9.016;2022-12-07T05:31:44;7.00;;;4.77;;
705;SDS011;21234;48.690;9.016;2022-12-07T05:34:11;10.20;;;5.30;;
705;SDS011;21234;48.690;9.016;2022-12-07T05:36:37;10.93;;;9.90;;
705;SDS011;21234;48.690;9.016;2022-12-07T05:39:05;10.50;;;5.40;;
705;SDS011;21234;48.690;9.016;2022-12-07T05:41:32;6.20;;;5.20;;
705;SDS011;21234;48.690;9.016;2022-12-07T05:44:17;4.80;;;3.67;;
705;SDS011;21234;48.690;9.016;2022-12-07T05:46:44;4.63;;;3.87;;
705;SDS011;21234;48.690;9.016;2022-12-07T05:49:11;5.40;;;3.83;;
705;SDS011;21234;48.690;9.016;2022-12-07T05:51:37;7.27;;;4.93;;
705;SDS011;21234;48.690;9.016;2022-12-07T05:54:04;8.30;;;4.20;;
705;SDS011;21234;48.690;9.016;2022-12-07T05:56:31;6.80;;;4.57;;
705;SDS011;21234;48.690;9.016;2022-12-07T05:58:58;6.33;;;4.13;;
705;SDS011;21234;48.690;9.016;2022-12-07T06:01:43;4.97;;;3.70;;
705;SDS011;21234;48.690;9.016;2022-12-07T06:04:10;6.33;;;4.30;;
705;SDS011;21234;48.690;9.016;2022-12-07T06:06:37;9.70;;;5.20;;
705;SDS011;21234;48.690;9.016;2022-12-07T06:09:04;6.67;;;4.10;;
705;SDS011;21234;48.690;9.016;2022-12-07T06:11:30;7.00;;;5.17;;
705;SDS011;21234;48.690;9.016;2022-12-07T06:14:14;8.87;;;5.23;;
705;SDS011;21234;48.690;9.016;2022-12-07T06:16:41;6.70;;;5.10;;
705;SDS011;21234;48.690;9.016;2022-12-07T06:19:09;7.90;;;6.00;;
705;SDS011;21234;48.690;9.016;2022-12-07T06:21:36;6.30;;;4.80;;
705;SDS011;21234;48.690;9.016;2022-12-07T06:24:03;7.37;;;4.40;;
705;SDS011;21234;48.690;9.016;2022-12-07T06:26:30;7.60;;;4.93;;
705;SDS011;21234;48.690;9.016;2022-12-07T06:28:56;7.40;;;4.43;;
705;SDS011;21234;48.690;9.016;2022-12-07T06:31:23;4.83;;;4.20;;
705;SDS011;21234;48.690;9.016;2022-12-07T06:33:50;6.90;;;4.43;;
705;SDS011;21234;48.690;9.016;2022-12-07T06:36:18;6.40;;;4.60;;
705;SDS011;21234;48.690;9.016;2022-12-07T06:38:45;5.30;;;4.70;;
705;SDS011;21234;48.690;9.016;2022-12-07T06:41:11;7.00;;;5.43;;
705;SDS011;21234;48.690;9.016;2022-12-07T06:43:38;6.67;;;4.37;;
705;SDS011;21234;48.690;9.016;2022-12-07T06:46:05;6.97;;;5.03;;
705;SDS011;21234;48.690;9.016;2022-12-07T06:48:31;6.43;;;4.83;;
705;SDS011;21234;48.690;9.016;2022-12-07T06:50:58;11.47;;;5.77;;
705;SDS011;21234;48.690;9.016;2022-12-07T06:53:26;8.33;;;6.00;;
705;SDS011;21234;48.690;9.016;2022-12-07T06:55:53;7.17;;;5.43;;
705;SDS011;21234;48.690;9.016;2022-12-07T06:58:19;8.00;;;5.20;;
705;SDS011;21234;48.690;9.016;2022-12-07T07:00:47;11.90;;;5.60;;
705;SDS011;21234;48.690;9.016;2022-12-07T07:03:14;10.83;;;5.90;;
705;SDS011;21234;48.690;9.016;2022-12-07T07:05:41;9.80;;;5.63;;
705;SDS011;21234;48.690;9.016;2022-12-07T07:08:08;8.30;;;5.30;;
705;SDS011;21234;48.690;9.016;2022-12-07T07:10:36;10.37;;;5.90;;
705;SDS011;21234;48.690;9.016;2022-12-07T07:13:03;9.43;;;6.50;;
705;SDS011;21234;48.690;9.016;2022-12-07T07:15:30;10.90;;;7.50;;
705;SDS011;21234;48.690;9.016;2022-12-07T07:17:57;20.57;;;11.23;;
705;SDS011;21234;48.690;9.016;2022-12-07T07:20:24;32.40;;;18.90;;
705;SDS011;21234;48.690;9.016;2022-12-07T07:22:53;25.73;;;17.97;;
705;SDS011;21234;48.690;9.016;2022-12-07T07:25:20;15.80;;;9.47;;
705;SDS011;21234;48.690;9.016;2022-12-07T07:27:49;18.17;;;7.37;;
705;SDS011;21234;48.690;9.016;2022-12-07T07:30:15;10.70;;;6.70;;
705;SDS011;21234;48.690;9.016;2022-12-07T07:32:42;13.00;;;7.40;;
705;SDS011;21234;48.690;9.016;2022-12-07T07:35:09;9.87;;;6.33;;
705;SDS011;21234;48.690;9.016;2022-12-07T07:37:36;7.70;;;5.40;;
705;SDS011;21234;48.690;9.016;2022-12-07T07:40:03;9.57;;;5.07;;
705;SDS011;21234;48.690;9.016;2022-12-07T07:42:30;10.93;;;6.10;;
705;SDS011;21234;48.690;9.016;2022-12-07T07:44:58;8.13;;;5.60;;
705;SDS011;21234;48.690;9.016;2022-12-07T07:47:24;8.60;;;4.60;;
705;SDS011;21234;48.690;9.016;2022-12-07T07:49:51;10.77;;;6.20;;
705;SDS011;21234;48.690;9.016;2022-12-07T07:52:18;9.30;;;5.27;;
705;SDS011;21234;48.690;9.016;2022-12-07T07:54:45;8.13;;;5.20;;
705;SDS011;21234;48.690;9.016;2022-12-07T07:57:12;7.37;;;4.93;;
705;SDS011;21234;48.690;9.016;2022-12-07T07:59:38;6.93;;;5.50;;
705;SDS011;21234;48.690;9.016;2022-12-07T08:02:07;9.97;;;5.27;;
705;SDS011;21234;48.690;9.016;2022-12-07T08:04:39;8.40;;;5.13;;
705;SDS011;21234;48.690;9.016;2022-12-07T08:07:06;6.93;;;4.60;;
705;SDS011;21234;48.690;9.016;2022-12-07T08:09:32;5.80;;;4.37;;
705;SDS011;21234;48.690;9.016;2022-12-07T08:11:59;9.33;;;5.07;;
705;SDS011;21234;48.690;9.016;2022-12-07T08:14:26;11.47;;;7.40;;
705;SDS011;21234;48.690;9.016;2022-12-07T08:16:53;8.30;;;5.80;;
705;SDS011;21234;48.690;9.016;2022-12-07T08:19:22;10.27;;;5.27;;
705;SDS011;21234;48.690;9.016;2022-12-07T08:21:49;9.07;;;5.23;;
705;SDS011;21234;48.690;9.016;2022-12-07T08:24:16;9.10;;;5.30;;
705;SDS011;21234;48.690;9.016;2022-12-07T08:26:43;7.70;;;6.17;;
705;SDS011;21234;48.690;9.016;2022-12-07T08:29:10;5.80;;;4.37;;
705;SDS011;21234;48.690;9.016;2022-12-07T08:31:36;5.53;;;4.00;;
705;SDS011;21234;48.690;9.016;2022-12-07T08:34:04;7.10;;;4.10;;
705;SDS011;21234;48.690;9.016;2022-12-07T08:36:32;8.80;;;4.80;;
705;SDS011;21234;48.690;9.016;2022-12-07T08:38:59;6.20;;;4.60;;
705;SDS011;21234;48.690;9.016;2022-12-07T08:41:26;6.60;;;4.20;;
705;SDS011;21234;48.690;9.016;2022-12-07T08:43:52;5.80;;;3.73;;
705;SDS011;21234;48.690;9.016;2022-12-07T08:46:20;8.27;;;5.60;;
705;SDS011;21234;48.690;9.016;2022-12-07T08:48:51;7.33;;;4.90;;
705;SDS011;21234;48.690;9.016;2022-12-07T08:51:22;9.57;;;5.90;;
705;SDS011;21234;48.690;9.016;2022-12-07T08:53:51;4.27;;;3.67;;
705;SDS011;21234;48.690;9.016;2022-12-07T08:56:18;5.37;;;3.77;;
705;SDS011;21234;48.690;9.016;2022-12-07T08:58:46;4.30;;;3.60;;
705;SDS011;21234;48.690;9.016;2022-12-07T09:01:14;4.33;;;3.17;;
705;SDS011;21234;48.690;9.016;2022-12-07T09:03:40;6.27;;;3.93;;
705;SDS011;21234;48.690;9.016;2022-12-07T09:06:07;6.60;;;3.83;;
705;SDS011;21234;48.690;9.016;2022-12-07T09:08:34;5.00;;;3.50;;
705;SDS011;21234;48.690;9.016;2022-12-07T09:11:06;4.83;;;3.30;;
705;SDS011;21234;48.690;9.016;2022-12-07T09:13:33;4.50;;;4.10;;
705;SDS011;21234;48.690;9.016;2022-12-07T09:15:59;6.53;;;3.10;;
705;SDS011;21234;48.690;9.016;2022-12-07T09:18:26;7.37;;;3.47;;
705;SDS011;21234;48.690;9.016;2022-12-07T09:20:53;7.00;;;4.20;;
705;SDS011;21234;48.690;9.016;2022-12-07T09:23:19;5.60;;;3.30;;
705;SDS011;21234;48.690;9.016;2022-12-07T09:25:46;7.33;;;4.50;;
705;SDS011;21234;48.690;9.016;2022-12-07T09:28:14;6.27;;;4.50;;
705;SDS011;21234;48.690;9.016;2022-12-07T09:30:44;5.70;;;4.20;;
705;SDS011;21234;48.690;9.016;2022-12-07T09:33:11;9.93;;;5.50;;
705;SDS011;21234;48.690;9.016;2022-12-07T09:35:38;14.63;;;8.37;;
705;SDS011;21234;48.690;9.016;2022-12-07T09:38:11;6.10;;;4.60;;
705;SDS011;21234;48.690;9.016;2022-12-07T09:40:37;12.97;;;9.40;;
705;SDS011;21234;48.690;9.016;2022-12-07T09:43:04;20.50;;;15.10;;
705;SDS011;21234;48.690;9.016;2022-12-07T09:45:33;6.77;;;5.00;;
705;SDS011;21234;48.690;9.016;2022-12-07T09:48:02;7.57;;;4.00;;
705;SDS011;21234;48.690;9.016;2022-12-07T09:50:29;5.53;;;3.60;;
705;SDS011;21234;48.690;9.016;2022-12-07T09:53:02;5.70;;;4.17;;
705;SDS011;21234;48.690;9.016;2022-12-07T09:55:33;5.07;;;3.37;;
705;SDS011;21234;48.690;9.016;2022-12-07T09:58:02;5.13;;;3.50;;
705;SDS011;21234;48.690;9.016;2022-12-07T10:00:30;7.13;;;5.00;;
705;SDS011;21234;48.690;9.016;2022-12-07T10:02:58;5.93;;;3.83;;
705;SDS011;21234;48.690;9.016;2022-12-07T10:05:27;5.07;;;3.60;;
705;SDS011;21234;48.690;9.016;2022-12-07T10:07:57;5.70;;;3.93;;
705;SDS011;21234;48.690;9.016;2022-12-07T10:10:24;6.30;;;4.03;;
705;SDS011;21234;48.690;9.016;2022-12-07T10:12:53;7.20;;;3.67;;
705;SDS011;21234;48.690;9.016;2022-12-07T10:15:22;4.97;;;3.93;;
705;SDS011;21234;48.690;9.016;2022-12-07T10:17:49;5.70;;;3.40;;
705;SDS011;21234;48.690;9.016;2022-12-07T10:20:20;6.60;;;3.50;;
705;SDS011;21234;48.690;9.016;2022-12-07T10:23:00;6.47;;;3.63;;
705;SDS011;21234;48.690;9.016;2022-12-07T10:25:29;6.17;;;4.13;;
705;SDS011;21234;48.690;9.016;2022-12-07T10:28:03;8.90;;;3.90;;
705;SDS011;21234;48.690;9.016;2022-12-07T10:30:50;3.30;;;2.47;;
705;SDS011;21234;48.690;9.016;2022-12-07T10:33:28;4.63;;;4.17;;
705;SDS011;21234;48.690;9.016;2022-12-07T10:35:58;6.20;;;4.70;;
705;SDS011;21234;48.690;9.016;2022-12-07T10:38:26;7.93;;;6.40;;
705;SDS011;21234;48.690;9.016;2022-12-07T10:41:04;9.83;;;7.00;;
705;SDS011;21234;48.690;9.016;2022-12-07T10:43:32;5.20;;;4.23;;
705;SDS011;21234;48.690;9.016;2022-12-07T10:46:22;5.57;;;3.43;;
705;SDS011;21234;48.690;9.016;2022-12-07T10:49:05;7.47;;;3.70;;
705;SDS011;21234;48.690;9.016;2022-12-07T10:51:47;10.40;;;7.90;;
705;SDS011;21234;48.690;9.016;2022-12-07T10:54:22;5.90;;;5.00;;
705;SDS011;21234;48.690;9.016;2022-12-07T10:57:02;4.80;;;3.40;;
705;SDS011;21234;48.690;9.016;2022-12-07T10:59:47;12.00;;;7.70;;
705;SDS011;21234;48.690;9.016;2022-12-07T11:02:32;5.57;;;3.60;;
705;SDS011;21234;48.690;9.016;2022-12-07T11:05:15;5.10;;;3.70;;
705;SDS011;21234;48.690;9.016;2022-12-07T11:07:54;6.30;;;3.87;;
705;SDS011;21234;48.690;9.016;2022-12-07T11:10:30;5.50;;;3.40;;
705;SDS011;21234;48.690;9.016;2022-12-07T11:13:16;4.97;;;3.83;;
705;SDS011;21234;48.690;9.016;2022-12-07T11:15:55;11.27;;;6.67;;
705;SDS011;21234;48.690;9.016;2022-12-07T11:18:32;4.47;;;2.73;;
705;SDS011;21234;48.690;9.016;2022-12-07T11:21:06;3.37;;;2.93;;
705;SDS011;21234;48.690;9.016;2022-12-07T11:23:43;5.13;;;4.57;;
705;SDS011;21234;48.690;9.016;2022-12-07T11:26:16;5.53;;;3.47;;
705;SDS011;21234;48.690;9.016;2022-12-07T11:29:05;5.30;;;3.60;;
705;SDS011;21234;48.690;9.016;2022-12-07T11:31:49;4.10;;;3.13;;
705;SDS011;21234;48.690;9.016;2022-12-07T11:34:25;4.10;;;3.33;;
705;SDS011;21234;48.690;9.016;2022-12-07T11:37:01;4.57;;;3.40;;
705;SDS011;21234;48.690;9.016;2022-12-07T11:39:34;5.20;;;3.77;;
705;SDS011;21234;48.690;9.016;2022-12-07T11:42:04;4.63;;;3.50;;
705;SDS011;21234;48.690;9.016;2022-12-07T11:44:37;3.33;;;2.13;;
705;SDS011;21234;48.690;9.016;2022-12-07T11:47:12;4.93;;;3.00;;
705;SDS011;21234;48.690;9.016;2022-12-07T11:49:45;5.87;;;3.00;;
705;SDS011;21234;48.690;9.016;2022-12-07T11:52:21;4.00;;;3.23;;
705;SDS011;21234;48.690;9.016;2022-12-07T11:54:53;4.10;;;3.30;;
705;SDS011;21234;48.690;9.016;2022-12-07T11:57:20;5.77;;;3.37;;
705;SDS011;21234;48.690;9.016;2022-12-07T11:59:56;7.53;;;4.17;;
705;SDS011;21234;48.690;9.016;2022-12-07T12:02:28;6.20;;;3.10;;
705;SDS011;21234;48.690;9.016;2022-12-07T12:05:05;5.03;;;3.50;;
705;SDS011;21234;48.690;9.016;2022-12-07T12:07:40;4.70;;;2.73;;
705;SDS011;21234;48.690;9.016;2022-12-07T12:10:14;5.33;;;3.50;;
705;SDS011;21234;48.690;9.016;2022-12-07T12:12:52;4.13;;;2.63;;
705;SDS011;21234;48.690;9.016;2022-12-07T12:15:39;4.43;;;3.07;;
705;SDS011;21234;48.690;9.016;2022-12-07T12:18:27;4.80;;;2.97;;
705;SDS011;21234;48.690;9.016;2022-12-07T12:21:16;4.53;;;3.47;;
705;SDS011;21234;48.690;9.016;2022-12-07T12:23:46;5.03;;;3.13;;
705;SDS011;21234;48.690;9.016;2022-12-07T12:26:20;4.87;;;3.07;;
705;SDS011;21234;48.690;9.016;2022-12-07T12:28:51;4.23;;;3.50;;
705;SDS011;21234;48.690;9.016;2022-12-07T12:31:34;5.03;;;3.37;;
705;SDS011;21234;48.690;9.016;2022-12-07T12:34:10;6.27;;;3.13;;
705;SDS011;21234;48.690;9.016;2022-12-07T12:37:07;6.10;;;4.00;;
705;SDS011;21234;48.690;9.016;2022-12-07T12:55:13;3.47;;;2.70;;
705;SDS011;21234;48.690;9.016;2022-12-07T12:57:46;3.40;;;2.07;;
705;SDS011;21234;48.690;9.016;2022-12-07T13:00:17;4.07;;;2.00;;
705;SDS011;21234;48.690;9.016;2022-12-07T13:02:48;2.27;;;2.07;;
705;SDS011;21234;48.690;9.016;2022-12-07T13:05:19;2.30;;;1.77;;
705;SDS011;21234;48.690;9.016;2022-12-07T13:07:53;2.63;;;2.43;;
705;SDS011;21234;48.690;9.016;2022-12-07T13:10:41;3.30;;;3.00;;
705;SDS011;21234;48.690;9.016;2022-12-07T13:13:30;1.80;;;1.70;;
705;SDS011;21234;48.690;9.016;2022-12-07T13:22:27;2.40;;;2.20;;
705;SDS011;21234;48.690;9.016;2022-12-07T13:25:21;2.70;;;2.50;;
705;SDS011;21234;48.690;9.016;2022-12-07T13:27:57;4.07;;;2.57;;
705;SDS011;21234;48.690;9.016;2022-12-07T13:30:27;3.53;;;1.97;;
705;SDS011;21234;48.690;9.016;2022-12-07T13:32:56;5.87;;;2.67;;
705;SDS011;21234;48.690;9.016;2022-12-07T13:35:29;2.70;;;2.43;;
705;SDS011;21234;48.690;9.016;2022-12-07T13:37:58;3.00;;;2.27;;
705;SDS011;21234;48.690;9.016;2022-12-07T13:40:25;2.70;;;2.17;;
705;SDS011;21234;48.690;9.016;2022-12-07T13:42:59;4.10;;;2.67;;
705;SDS011;21234;48.690;9.016;2022-12-07T13:45:28;6.27;;;3.57;;
705;SDS011;21234;48.690;9.016;2022-12-07T13:48:14;5.43;;;4.33;;
705;SDS011;21234;48.690;9.016;2022-12-07T13:50:52;4.27;;;2.77;;
705;SDS011;21234;48.690;9.016;2022-12-07T13:53:21;6.70;;;4.40;;
705;SDS011;21234;48.690;9.016;2022-12-07T13:55:48;20.43;;;11.67;;
705;SDS011;21234;48.690;9.016;2022-12-07T13:58:15;10.10;;;5.73;;
705;SDS011;21234;48.690;9.016;2022-12-07T14:00:42;5.90;;;2.73;;
705;SDS011;21234;48.690;9.016;2022-12-07T14:03:25;3.30;;;2.63;;
705;SDS011;21234;48.690;9.016;2022-12-07T14:06:06;4.33;;;2.67;;
705;SDS011;21234;48.690;9.016;2022-12-07T14:09:08;4.03;;;3.33;;
705;SDS011;21234;48.690;9.016;2022-12-07T14:11:42;3.70;;;2.70;;
705;SDS011;21234;48.690;9.016;2022-12-07T14:14:10;3.60;;;2.80;;
705;SDS011;21234;48.690;9.016;2022-12-07T14:16:43;3.93;;;2.60;;
705;SDS011;21234;48.690;9.016;2022-12-07T14:22:18;3.00;;;2.70;;
705;SDS011;21234;48.690;9.016;2022-12-07T14:24:49;3.30;;;2.50;;
705;SDS011;21234;48.690;9.016;2022-12-07T14:27:17;5.53;;;2.80;;
705;SDS011;21234;48.690;9.016;2022-12-07T14:29:44;4.40;;;2.50;;
705;SDS011;21234;48.690;9.016;2022-12-07T14:32:17;3.83;;;2.50;;
705;SDS011;21234;48.690;9.016;2022-12-07T14:34:54;5.50;;;3.10;;
705;SDS011;21234;48.690;9.016;2022-12-07T14:37:28;4.20;;;2.80;;
705;SDS011;21234;48.690;9.016;2022-12-07T14:39:57;2.23;;;2.00;;
705;SDS011;21234;48.690;9.016;2022-12-07T14:42:26;3.90;;;3.10;;
705;SDS011;21234;48.690;9.016;2022-12-07T14:44:56;4.20;;;3.20;;
705;SDS011;21234;48.690;9.016;2022-12-07T14:47:23;5.77;;;3.47;;
705;SDS011;21234;48.690;9.016;2022-12-07T14:49:51;5.33;;;2.90;;
705;SDS011;21234;48.690;9.016;2022-12-07T14:52:18;5.77;;;3.80;;
705;SDS011;21234;48.690;9.016;2022-12-07T14:54:48;4.53;;;3.10;;
705;SDS011;21234;48.690;9.016;2022-12-07T14:57:16;2.87;;;2.57;;
705;SDS011;21234;48.690;9.016;2022-12-07T14:59:42;4.67;;;2.60;;
705;SDS011;21234;48.690;9.016;2022-12-07T15:02:09;2.63;;;2.20;;
705;SDS011;21234;48.690;9.016;2022-12-07T15:04:37;4.93;;;3.38;;
705;SDS011;21234;48.690;9.016;2022-12-07T15:07:04;3.53;;;2.60;;
705;SDS011;21234;48.690;9.016;2022-12-07T15:09:37;3.10;;;2.17;;
705;SDS011;21234;48.690;9.016;2022-12-07T15:12:04;4.23;;;2.90;;
705;SDS011;21234;48.690;9.016;2022-12-07T15:14:32;3.43;;;2.70;;
705;SDS011;21234;48.690;9.016;2022-12-07T15:16:59;6.07;;;2.80;;
705;SDS011;21234;48.690;9.016;2022-12-07T15:19:25;4.60;;;3.20;;
705;SDS011;21234;48.690;9.016;2022-12-07T15:21:53;7.07;;;5.97;;
705;SDS011;21234;48.690;9.016;2022-12-07T15:24:20;6.83;;;4.50;;
705;SDS011;21234;48.690;9.016;2022-12-07T15:26:47;7.03;;;4.47;;
705;SDS011;21234;48.690;9.016;2022-12-07T15:29:13;7.37;;;4.57;;
705;SDS011;21234;48.690;9.016;2022-12-07T15:31:42;6.33;;;4.23;;
705;SDS011;21234;48.690;9.016;2022-12-07T15:34:10;11.40;;;5.37;;
705;SDS011;21234;48.690;9.016;2022-12-07T15:36:37;9.30;;;5.70;;
705;SDS011;21234;48.690;9.016;2022-12-07T15:39:03;6.97;;;5.93;;
705;SDS011;21234;48.690;9.016;2022-12-07T15:41:30;5.00;;;4.50;;
705;SDS011;21234;48.690;9.016;2022-12-07T15:43:57;6.73;;;5.53;;
705;SDS011;21234;48.690;9.016;2022-12-07T15:46:42;4.37;;;3.80;;
705;SDS011;21234;48.690;9.016;2022-12-07T15:49:13;7.73;;;3.80;;
705;SDS011;21234;48.690;9.016;2022-12-07T15:51:41;4.27;;;3.87;;
705;SDS011;21234;48.690;9.016;2022-12-07T15:54:11;7.37;;;5.20;;
705;SDS011;21234;48.690;9.016;2022-12-07T15:56:42;7.50;;;4.97;;